sensor_id;sensor_type;location;lat;lon;timestamp;P1;durP1;ratioP1;P2;durP2;ratioP2
8040;SDS011;4063;48.140;10.250;2023-04-03T00:00:24;9.13;;;8.23;;
8040;SDS011;4063;48.140;10.250;2023-04-03T00:02:50;9.33;;;8.47;;
8040;SDS011;4063;48.140;10.250;2023-04-03T00:05:16;9.43;;;8.57;;
8040;SDS011;4063;48.140;10.250;2023-04-03T00:07:42;10.33;;;9.23;;
8040;SDS011;4063;48.140;10.250;2023-04-03T00:10:08;9.50;;;8.60;;
8040;SDS011;4063;48.140;10.250;2023-04-03T00:12:34;10.20;;;9.20;;
8040;SDS011;4063;48.140;10.250;2023-04-03T00:15:00;10.33;;;9.33;;
8040;SDS011;4063;48.140;10.250;2023-04-03T00:17:26;9.83;;;8.83;;
8040;SDS011;4063;48.140;10.250;2023-04-03T00:19:52;9.70;;;8.73;;
8040;SDS011;4063;48.140;10.250;2023-04-03T00:22:18;9.47;;;8.57;;
8040;SDS011;4063;48.140;10.250;2023-04-03T00:24:44;10.70;;;9.60;;
8040;SDS011;4063;48.140;10.250;2023-04-03T00:27:10;10.33;;;9.33;;
8040;SDS011;4063;48.140;10.250;2023-04-03T00:29:36;9.80;;;8.90;;
8040;SDS011;4063;48.140;10.250;2023-04-03T00:32:02;10.13;;;9.13;;
8040;SDS011;4063;48.140;10.250;2023-04-03T00:34:28;9.93;;;8.93;;
8040;SDS011;4063;48.140;10.250;2023-04-03T00:36:54;9.77;;;8.87;;
8040;SDS011;4063;48.140;10.250;2023-04-03T00:39:20;9.97;;;8.97;;
8040;SDS011;4063;48.140;10.250;2023-04-03T00:41:46;9.47;;;8.57;;
8040;SDS011;4063;48.140;10.250;2023-04-03T00:44:22;9.33;;;8.30;;
8040;SDS011;4063;48.140;10.250;2023-04-03T00:47:09;9.67;;;8.20;;
8040;SDS011;4063;48.140;10.250;2023-04-03T00:49:37;8.60;;;7.80;;
8040;SDS011;4063;48.140;10.250;2023-04-03T00:52:04;9.57;;;8.57;;
8040;SDS011;4063;48.140;10.250;2023-04-03T00:54:31;9.33;;;8.53;;
8040;SDS011;4063;48.140;10.250;2023-04-03T00:56:58;8.53;;;7.63;;
8040;SDS011;4063;48.140;10.250;2023-04-03T00:59:25;8.20;;;7.40;;
8040;SDS011;4063;48.140;10.250;2023-04-03T01:01:53;8.47;;;7.67;;
8040;SDS011;4063;48.140;10.250;2023-04-03T01:06:59;8.83;;;8.00;;
8040;SDS011;4063;48.140;10.250;2023-04-03T01:09:27;8.73;;;7.93;;
8040;SDS011;4063;48.140;10.250;2023-04-03T01:11:54;8.73;;;7.93;;
8040;SDS011;4063;48.140;10.250;2023-04-03T01:14:20;8.47;;;7.67;;
8040;SDS011;4063;48.140;10.250;2023-04-03T01:16:55;8.30;;;7.43;;
8040;SDS011;4063;48.140;10.250;2023-04-03T01:19:21;8.47;;;7.67;;
8040;SDS011;4063;48.140;10.250;2023-04-03T01:24:50;9.10;;;7.50;;
8040;SDS011;4063;48.140;10.250;2023-04-03T01:27:18;8.50;;;7.60;;
8040;SDS011;4063;48.140;10.250;2023-04-03T01:29:44;8.73;;;7.83;;
8040;SDS011;4063;48.140;10.250;2023-04-03T01:32:11;9.57;;;7.57;;
8040;SDS011;4063;48.140;10.250;2023-04-03T01:34:37;7.83;;;7.03;;
8040;SDS011;4063;48.140;10.250;2023-04-03T01:37:03;7.90;;;7.10;;
8040;SDS011;4063;48.140;10.250;2023-04-03T01:39:28;8.00;;;7.30;;
8040;SDS011;4063;48.140;10.250;2023-04-03T01:41:55;8.73;;;7.93;;
8040;SDS011;4063;48.140;10.250;2023-04-03T01:44:21;8.10;;;7.30;;
8040;SDS011;4063;48.140;10.250;2023-04-03T01:46:47;7.83;;;7.03;;
8040;SDS011;4063;48.140;10.250;2023-04-03T01:49:13;9.70;;;7.50;;
8040;SDS011;4063;48.140;10.250;2023-04-03T01:51:39;7.53;;;6.83;;
8040;SDS011;4063;48.140;10.250;2023-04-03T01:54:04;8.17;;;7.37;;
8040;SDS011;4063;48.140;10.250;2023-04-03T01:56:31;7.97;;;6.77;;
8040;SDS011;4063;48.140;10.250;2023-04-03T01:58:57;6.67;;;6.07;;
8040;SDS011;4063;48.140;10.250;2023-04-03T02:01:23;9.00;;;7.03;;
8040;SDS011;4063;48.140;10.250;2023-04-03T02:03:50;7.80;;;7.00;;
8040;SDS011;4063;48.140;10.250;2023-04-03T02:06:16;7.27;;;6.60;;
8040;SDS011;4063;48.140;10.250;2023-04-03T02:08:42;9.40;;;6.70;;
8040;SDS011;4063;48.140;10.250;2023-04-03T02:11:08;7.97;;;7.17;;
8040;SDS011;4063;48.140;10.250;2023-04-03T02:13:34;7.93;;;7.13;;
8040;SDS011;4063;48.140;10.250;2023-04-03T02:16:05;8.13;;;7.33;;
8040;SDS011;4063;48.140;10.250;2023-04-03T02:18:31;9.47;;;6.80;;
8040;SDS011;4063;48.140;10.250;2023-04-03T02:20:58;8.70;;;7.33;;
8040;SDS011;4063;48.140;10.250;2023-04-03T02:23:24;7.20;;;6.50;;
8040;SDS011;4063;48.140;10.250;2023-04-03T02:25:50;7.70;;;6.87;;
8040;SDS011;4063;48.140;10.250;2023-04-03T02:28:16;7.67;;;6.70;;
8040;SDS011;4063;48.140;10.250;2023-04-03T02:30:43;7.00;;;6.40;;
8040;SDS011;4063;48.140;10.250;2023-04-03T02:33:09;7.87;;;7.17;;
8040;SDS011;4063;48.140;10.250;2023-04-03T02:35:35;7.93;;;6.80;;
8040;SDS011;4063;48.140;10.250;2023-04-03T02:38:03;7.43;;;6.70;;
8040;SDS011;4063;48.140;10.250;2023-04-03T02:40:29;7.70;;;6.97;;
8040;SDS011;4063;48.140;10.250;2023-04-03T02:42:55;8.30;;;6.77;;
8040;SDS011;4063;48.140;10.250;2023-04-03T02:45:22;7.03;;;6.33;;
8040;SDS011;4063;48.140;10.250;2023-04-03T02:47:48;8.00;;;7.07;;
8040;SDS011;4063;48.140;10.250;2023-04-03T02:50:14;8.03;;;7.23;;
8040;SDS011;4063;48.140;10.250;2023-04-03T02:52:40;6.87;;;6.27;;
8040;SDS011;4063;48.140;10.250;2023-04-03T02:55:06;6.87;;;6.27;;
8040;SDS011;4063;48.140;10.250;2023-04-03T02:57:32;7.80;;;6.97;;
8040;SDS011;4063;48.140;10.250;2023-04-03T02:59:58;8.47;;;6.77;;
8040;SDS011;4063;48.140;10.250;2023-04-03T03:02:24;7.07;;;6.47;;
8040;SDS011;4063;48.140;10.250;2023-04-03T03:04:50;6.77;;;6.10;;
8040;SDS011;4063;48.140;10.250;2023-04-03T03:07:16;7.57;;;6.23;;
8040;SDS011;4063;48.140;10.250;2023-04-03T03:09:42;7.50;;;6.50;;
8040;SDS011;4063;48.140;10.250;2023-04-03T03:12:08;7.03;;;6.13;;
8040;SDS011;4063;48.140;10.250;2023-04-03T03:14:34;53.10;;;34.23;;
8040;SDS011;4063;48.140;10.250;2023-04-03T03:17:00;18.00;;;15.33;;
8040;SDS011;4063;48.140;10.250;2023-04-03T03:19:26;10.47;;;8.90;;
8040;SDS011;4063;48.140;10.250;2023-04-03T03:21:52;24.30;;;19.00;;
8040;SDS011;4063;48.140;10.250;2023-04-03T03:24:18;15.03;;;12.53;;
8040;SDS011;4063;48.140;10.250;2023-04-03T03:26:45;19.80;;;14.20;;
8040;SDS011;4063;48.140;10.250;2023-04-03T03:29:11;10.47;;;9.00;;
8040;SDS011;4063;48.140;10.250;2023-04-03T03:31:37;7.30;;;6.60;;
8040;SDS011;4063;48.140;10.250;2023-04-03T03:34:02;6.90;;;6.30;;
8040;SDS011;4063;48.140;10.250;2023-04-03T03:36:28;7.67;;;6.97;;
8040;SDS011;4063;48.140;10.250;2023-04-03T03:38:55;10.90;;;9.80;;
8040;SDS011;4063;48.140;10.250;2023-04-03T03:41:21;8.13;;;7.33;;
8040;SDS011;4063;48.140;10.250;2023-04-03T03:43:47;6.77;;;5.60;;
8040;SDS011;4063;48.140;10.250;2023-04-03T03:46:13;5.73;;;5.03;;
8040;SDS011;4063;48.140;10.250;2023-04-03T03:48:39;8.63;;;5.40;;
8040;SDS011;4063;48.140;10.250;2023-04-03T03:51:05;6.27;;;5.13;;
8040;SDS011;4063;48.140;10.250;2023-04-03T03:53:32;6.27;;;5.60;;
8040;SDS011;4063;48.140;10.250;2023-04-03T03:55:58;6.03;;;5.37;;
8040;SDS011;4063;48.140;10.250;2023-04-03T03:58:24;6.70;;;6.00;;
8040;SDS011;4063;48.140;10.250;2023-04-03T04:00:50;6.47;;;5.87;;
8040;SDS011;4063;48.140;10.250;2023-04-03T04:03:16;4.90;;;4.50;;
8040;SDS011;4063;48.140;10.250;2023-04-03T04:05:42;5.80;;;4.80;;
8040;SDS011;4063;48.140;10.250;2023-04-03T04:08:08;5.13;;;4.33;;
8040;SDS011;4063;48.140;10.250;2023-04-03T04:10:34;6.83;;;5.20;;
8040;SDS011;4063;48.140;10.250;2023-04-03T04:13:01;5.50;;;5.00;;
8040;SDS011;4063;48.140;10.250;2023-04-03T04:15:27;5.40;;;4.70;;
8040;SDS011;4063;48.140;10.250;2023-04-03T04:17:54;5.87;;;5.37;;
8040;SDS011;4063;48.140;10.250;2023-04-03T04:20:21;6.83;;;4.70;;
8040;SDS011;4063;48.140;10.250;2023-04-03T04:22:47;4.83;;;4.43;;
8040;SDS011;4063;48.140;10.250;2023-04-03T04:25:13;5.30;;;4.70;;
8040;SDS011;4063;48.140;10.250;2023-04-03T04:27:40;6.00;;;4.37;;
8040;SDS011;4063;48.140;10.250;2023-04-03T04:30:06;4.70;;;4.30;;
8040;SDS011;4063;48.140;10.250;2023-04-03T04:32:32;5.30;;;4.17;;
8040;SDS011;4063;48.140;10.250;2023-04-03T04:34:58;4.60;;;4.20;;
8040;SDS011;4063;48.140;10.250;2023-04-03T04:37:24;4.43;;;4.03;;
8040;SDS011;4063;48.140;10.250;2023-04-03T04:39:51;5.00;;;4.30;;
8040;SDS011;4063;48.140;10.250;2023-04-03T04:42:17;4.23;;;3.93;;
8040;SDS011;4063;48.140;10.250;2023-04-03T04:44:43;4.50;;;4.10;;
8040;SDS011;4063;48.140;10.250;2023-04-03T04:47:09;5.87;;;4.23;;
8040;SDS011;4063;48.140;10.250;2023-04-03T04:49:35;5.47;;;3.87;;
8040;SDS011;4063;48.140;10.250;2023-04-03T04:52:01;5.30;;;4.80;;
8040;SDS011;4063;48.140;10.250;2023-04-03T04:54:27;4.87;;;4.30;;
8040;SDS011;4063;48.140;10.250;2023-04-03T04:56:53;4.97;;;4.40;;
8040;SDS011;4063;48.140;10.250;2023-04-03T04:59:20;5.70;;;4.80;;
8040;SDS011;4063;48.140;10.250;2023-04-03T05:01:46;5.43;;;4.67;;
8040;SDS011;4063;48.140;10.250;2023-04-03T05:04:13;5.70;;;5.07;;
8040;SDS011;4063;48.140;10.250;2023-04-03T05:06:40;5.13;;;4.13;;
8040;SDS011;4063;48.140;10.250;2023-04-03T05:09:06;4.87;;;4.20;;
8040;SDS011;4063;48.140;10.250;2023-04-03T05:11:32;5.50;;;5.00;;
8040;SDS011;4063;48.140;10.250;2023-04-03T05:13:58;5.63;;;4.27;;
8040;SDS011;4063;48.140;10.250;2023-04-03T05:16:24;4.70;;;4.10;;
8040;SDS011;4063;48.140;10.250;2023-04-03T05:18:51;7.70;;;4.93;;
8040;SDS011;4063;48.140;10.250;2023-04-03T05:21:17;7.20;;;5.10;;
8040;SDS011;4063;48.140;10.250;2023-04-03T05:23:48;6.03;;;4.30;;
8040;SDS011;4063;48.140;10.250;2023-04-03T05:26:14;6.53;;;5.73;;
8040;SDS011;4063;48.140;10.250;2023-04-03T05:28:40;6.73;;;6.13;;
8040;SDS011;4063;48.140;10.250;2023-04-03T05:31:06;11.47;;;8.83;;
8040;SDS011;4063;48.140;10.250;2023-04-03T05:33:32;13.60;;;11.97;;
8040;SDS011;4063;48.140;10.250;2023-04-03T05:36:01;9.20;;;8.23;;
8040;SDS011;4063;48.140;10.250;2023-04-03T05:38:28;6.90;;;6.20;;
8040;SDS011;4063;48.140;10.250;2023-04-03T05:40:54;6.80;;;6.07;;
8040;SDS011;4063;48.140;10.250;2023-04-03T05:43:20;5.33;;;4.83;;
8040;SDS011;4063;48.140;10.250;2023-04-03T05:45:47;5.67;;;4.97;;
8040;SDS011;4063;48.140;10.250;2023-04-03T05:48:13;6.67;;;5.80;;
8040;SDS011;4063;48.140;10.250;2023-04-03T05:50:39;4.97;;;4.57;;
8040;SDS011;4063;48.140;10.250;2023-04-03T05:53:07;5.50;;;5.00;;
8040;SDS011;4063;48.140;10.250;2023-04-03T05:55:38;5.70;;;4.43;;
8040;SDS011;4063;48.140;10.250;2023-04-03T05:58:03;5.90;;;4.60;;
8040;SDS011;4063;48.140;10.250;2023-04-03T06:00:30;7.33;;;5.07;;
8040;SDS011;4063;48.140;10.250;2023-04-03T06:02:56;5.03;;;4.50;;
8040;SDS011;4063;48.140;10.250;2023-04-03T06:05:22;5.43;;;4.93;;
8040;SDS011;4063;48.140;10.250;2023-04-03T06:07:49;6.43;;;4.97;;
8040;SDS011;4063;48.140;10.250;2023-04-03T06:10:15;5.33;;;4.43;;
8040;SDS011;4063;48.140;10.250;2023-04-03T06:12:42;4.87;;;4.37;;
8040;SDS011;4063;48.140;10.250;2023-04-03T06:15:08;4.93;;;4.00;;
8040;SDS011;4063;48.140;10.250;2023-04-03T06:17:35;4.57;;;4.13;;
8040;SDS011;4063;48.140;10.250;2023-04-03T06:20:02;5.43;;;4.70;;
8040;SDS011;4063;48.140;10.250;2023-04-03T06:22:30;6.47;;;4.33;;
8040;SDS011;4063;48.140;10.250;2023-04-03T06:24:56;5.10;;;4.37;;
8040;SDS011;4063;48.140;10.250;2023-04-03T06:27:22;5.60;;;5.00;;
8040;SDS011;4063;48.140;10.250;2023-04-03T06:29:48;5.33;;;4.83;;
8040;SDS011;4063;48.140;10.250;2023-04-03T06:32:15;4.50;;;4.10;;
8040;SDS011;4063;48.140;10.250;2023-04-03T06:34:41;5.80;;;4.37;;
8040;SDS011;4063;48.140;10.250;2023-04-03T06:37:26;4.80;;;4.30;;
8040;SDS011;4063;48.140;10.250;2023-04-03T06:39:54;6.37;;;4.67;;
8040;SDS011;4063;48.140;10.250;2023-04-03T06:42:22;6.80;;;4.97;;
8040;SDS011;4063;48.140;10.250;2023-04-03T06:44:48;5.40;;;4.90;;
8040;SDS011;4063;48.140;10.250;2023-04-03T06:47:15;5.33;;;4.60;;
8040;SDS011;4063;48.140;10.250;2023-04-03T06:49:42;4.87;;;4.37;;
8040;SDS011;4063;48.140;10.250;2023-04-03T06:52:09;5.63;;;4.83;;
8040;SDS011;4063;48.140;10.250;2023-04-03T06:54:36;5.00;;;4.60;;
8040;SDS011;4063;48.140;10.250;2023-04-03T06:57:03;6.57;;;4.43;;
8040;SDS011;4063;48.140;10.250;2023-04-03T06:59:29;6.17;;;4.93;;
8040;SDS011;4063;48.140;10.250;2023-04-03T07:01:55;6.80;;;4.60;;
8040;SDS011;4063;48.140;10.250;2023-04-03T07:04:21;8.00;;;5.23;;
8040;SDS011;4063;48.140;10.250;2023-04-03T07:06:47;5.50;;;4.60;;
8040;SDS011;4063;48.140;10.250;2023-04-03T07:09:14;4.80;;;4.40;;
8040;SDS011;4063;48.140;10.250;2023-04-03T07:11:40;4.83;;;4.20;;
8040;SDS011;4063;48.140;10.250;2023-04-03T07:14:07;5.77;;;4.13;;
8040;SDS011;4063;48.140;10.250;2023-04-03T07:16:34;4.63;;;4.10;;
8040;SDS011;4063;48.140;10.250;2023-04-03T07:19:01;6.63;;;4.43;;
8040;SDS011;4063;48.140;10.250;2023-04-03T07:21:27;5.63;;;4.30;;
8040;SDS011;4063;48.140;10.250;2023-04-03T07:23:54;4.70;;;3.93;;
8040;SDS011;4063;48.140;10.250;2023-04-03T07:26:20;6.67;;;4.83;;
8040;SDS011;4063;48.140;10.250;2023-04-03T07:28:47;4.97;;;4.10;;
8040;SDS011;4063;48.140;10.250;2023-04-03T07:31:13;4.33;;;3.83;;
8040;SDS011;4063;48.140;10.250;2023-04-03T07:33:41;5.90;;;4.83;;
8040;SDS011;4063;48.140;10.250;2023-04-03T07:36:09;5.83;;;4.77;;
8040;SDS011;4063;48.140;10.250;2023-04-03T07:38:35;5.33;;;4.50;;
8040;SDS011;4063;48.140;10.250;2023-04-03T07:41:02;4.90;;;4.17;;
8040;SDS011;4063;48.140;10.250;2023-04-03T07:43:28;5.07;;;3.83;;
8040;SDS011;4063;48.140;10.250;2023-04-03T07:45:55;3.97;;;3.67;;
8040;SDS011;4063;48.140;10.250;2023-04-03T07:48:22;4.47;;;3.90;;
8040;SDS011;4063;48.140;10.250;2023-04-03T07:50:49;4.67;;;4.27;;
8040;SDS011;4063;48.140;10.250;2023-04-03T07:53:16;6.10;;;4.63;;
8040;SDS011;4063;48.140;10.250;2023-04-03T07:55:42;6.33;;;5.63;;
8040;SDS011;4063;48.140;10.250;2023-04-03T07:58:09;5.83;;;4.30;;
8040;SDS011;4063;48.140;10.250;2023-04-03T08:00:36;5.60;;;4.50;;
8040;SDS011;4063;48.140;10.250;2023-04-03T08:03:02;5.57;;;4.53;;
8040;SDS011;4063;48.140;10.250;2023-04-03T08:05:28;4.50;;;4.10;;
8040;SDS011;4063;48.140;10.250;2023-04-03T08:07:54;6.33;;;4.77;;
8040;SDS011;4063;48.140;10.250;2023-04-03T08:10:21;7.20;;;5.63;;
8040;SDS011;4063;48.140;10.250;2023-04-03T08:12:47;5.10;;;4.60;;
8040;SDS011;4063;48.140;10.250;2023-04-03T08:15:13;5.67;;;5.17;;
8040;SDS011;4063;48.140;10.250;2023-04-03T08:17:39;5.83;;;4.93;;
8040;SDS011;4063;48.140;10.250;2023-04-03T08:20:05;4.53;;;3.63;;
8040;SDS011;4063;48.140;10.250;2023-04-03T08:22:32;6.27;;;5.77;;
8040;SDS011;4063;48.140;10.250;2023-04-03T08:24:58;5.70;;;4.00;;
8040;SDS011;4063;48.140;10.250;2023-04-03T08:27:24;8.70;;;7.80;;
8040;SDS011;4063;48.140;10.250;2023-04-03T08:29:51;7.60;;;4.67;;
8040;SDS011;4063;48.140;10.250;2023-04-03T08:32:17;5.57;;;4.33;;
8040;SDS011;4063;48.140;10.250;2023-04-03T08:34:43;5.30;;;3.83;;
8040;SDS011;4063;48.140;10.250;2023-04-03T08:37:09;4.53;;;3.90;;
8040;SDS011;4063;48.140;10.250;2023-04-03T08:39:35;5.67;;;4.60;;
8040;SDS011;4063;48.140;10.250;2023-04-03T08:42:02;6.50;;;4.33;;
8040;SDS011;4063;48.140;10.250;2023-04-03T08:44:53;4.57;;;3.73;;
8040;SDS011;4063;48.140;10.250;2023-04-03T08:47:37;5.17;;;3.80;;
8040;SDS011;4063;48.140;10.250;2023-04-03T08:50:07;4.60;;;4.07;;
8040;SDS011;4063;48.140;10.250;2023-04-03T08:52:53;5.13;;;4.47;;
8040;SDS011;4063;48.140;10.250;2023-04-03T08:55:22;5.37;;;4.40;;
8040;SDS011;4063;48.140;10.250;2023-04-03T08:57:50;5.07;;;4.57;;
8040;SDS011;4063;48.140;10.250;2023-04-03T09:00:18;6.67;;;5.23;;
8040;SDS011;4063;48.140;10.250;2023-04-03T09:02:45;4.57;;;4.00;;
8040;SDS011;4063;48.140;10.250;2023-04-03T09:05:13;5.30;;;4.13;;
8040;SDS011;4063;48.140;10.250;2023-04-03T09:07:42;4.73;;;3.57;;
8040;SDS011;4063;48.140;10.250;2023-04-03T09:10:10;4.30;;;3.53;;
8040;SDS011;4063;48.140;10.250;2023-04-03T09:12:38;5.03;;;3.63;;
8040;SDS011;4063;48.140;10.250;2023-04-03T09:15:09;7.73;;;3.50;;
8040;SDS011;4063;48.140;10.250;2023-04-03T09:17:49;4.93;;;3.17;;
8040;SDS011;4063;48.140;10.250;2023-04-03T09:22:49;5.00;;;3.27;;
8040;SDS011;4063;48.140;10.250;2023-04-03T09:25:27;4.13;;;3.67;;
8040;SDS011;4063;48.140;10.250;2023-04-03T09:27:55;5.90;;;3.30;;
8040;SDS011;4063;48.140;10.250;2023-04-03T09:30:22;8.30;;;3.43;;
8040;SDS011;4063;48.140;10.250;2023-04-03T09:32:53;3.73;;;3.27;;
8040;SDS011;4063;48.140;10.250;2023-04-03T09:35:27;5.07;;;3.77;;
8040;SDS011;4063;48.140;10.250;2023-04-03T09:37:55;4.17;;;3.77;;
8040;SDS011;4063;48.140;10.250;2023-04-03T09:42:51;5.10;;;4.13;;
8040;SDS011;4063;48.140;10.250;2023-04-03T09:47:57;4.00;;;3.00;;
8040;SDS011;4063;48.140;10.250;2023-04-03T09:50:30;4.50;;;3.33;;
8040;SDS011;4063;48.140;10.250;2023-04-03T09:52:56;3.60;;;3.30;;
8040;SDS011;4063;48.140;10.250;2023-04-03T09:55:23;4.43;;;3.40;;
8040;SDS011;4063;48.140;10.250;2023-04-03T09:57:58;4.50;;;3.37;;
8040;SDS011;4063;48.140;10.250;2023-04-03T10:00:26;5.60;;;3.57;;
8040;SDS011;4063;48.140;10.250;2023-04-03T10:02:55;3.67;;;3.17;;
8040;SDS011;4063;48.140;10.250;2023-04-03T10:07:50;3.60;;;3.30;;
8040;SDS011;4063;48.140;10.250;2023-04-03T10:10:18;4.17;;;3.13;;
8040;SDS011;4063;48.140;10.250;2023-04-03T10:12:45;3.70;;;2.97;;
8040;SDS011;4063;48.140;10.250;2023-04-03T10:15:15;3.70;;;2.80;;
8040;SDS011;4063;48.140;10.250;2023-04-03T10:17:48;3.33;;;3.03;;
8040;SDS011;4063;48.140;10.250;2023-04-03T10:20:22;3.33;;;3.03;;
8040;SDS011;4063;48.140;10.250;2023-04-03T10:23:00;4.70;;;3.00;;
8040;SDS011;4063;48.140;10.250;2023-04-03T10:25:33;3.70;;;3.10;;
8040;SDS011;4063;48.140;10.250;2023-04-03T10:30:49;4.83;;;3.80;;
8040;SDS011;4063;48.140;10.250;2023-04-03T10:33:28;4.10;;;2.80;;
8040;SDS011;4063;48.140;10.250;2023-04-03T10:36:02;3.83;;;2.60;;
8040;SDS011;4063;48.140;10.250;2023-04-03T10:49:05;4.30;;;2.77;;
8040;SDS011;4063;48.140;10.250;2023-04-03T10:54:05;5.37;;;4.50;;
8040;SDS011;4063;48.140;10.250;2023-04-03T10:56:39;4.53;;;2.93;;
8040;SDS011;4063;48.140;10.250;2023-04-03T11:01:48;3.27;;;2.97;;
8040;SDS011;4063;48.140;10.250;2023-04-03T11:04:17;6.33;;;3.20;;
8040;SDS011;4063;48.140;10.250;2023-04-03T11:06:48;3.80;;;3.20;;
8040;SDS011;4063;48.140;10.250;2023-04-03T11:09:18;5.13;;;2.80;;
8040;SDS011;4063;48.140;10.250;2023-04-03T11:11:45;3.27;;;2.97;;
8040;SDS011;4063;48.140;10.250;2023-04-03T11:14:32;4.03;;;3.17;;
8040;SDS011;4063;48.140;10.250;2023-04-03T11:22:32;4.03;;;3.10;;
8040;SDS011;4063;48.140;10.250;2023-04-03T11:33:00;3.60;;;3.30;;
8040;SDS011;4063;48.140;10.250;2023-04-03T11:35:27;3.83;;;3.10;;
8040;SDS011;4063;48.140;10.250;2023-04-03T11:37:54;3.40;;;3.10;;
8040;SDS011;4063;48.140;10.250;2023-04-03T11:42:51;3.50;;;3.20;;
8040;SDS011;4063;48.140;10.250;2023-04-03T11:47:51;4.53;;;3.03;;
8040;SDS011;4063;48.140;10.250;2023-04-03T12:08:44;3.10;;;2.50;;
8040;SDS011;4063;48.140;10.250;2023-04-03T12:16:27;2.37;;;2.17;;
8040;SDS011;4063;48.140;10.250;2023-04-03T12:19:04;2.70;;;2.20;;
8040;SDS011;4063;48.140;10.250;2023-04-03T12:22:10;3.10;;;2.80;;
8040;SDS011;4063;48.140;10.250;2023-04-03T12:24:36;6.57;;;2.57;;
8040;SDS011;4063;48.140;10.250;2023-04-03T12:35:03;6.88;;;3.03;;
8040;SDS011;4063;48.140;10.250;2023-04-03T12:42:40;2.83;;;2.27;;
8040;SDS011;4063;48.140;10.250;2023-04-03T12:45:30;4.43;;;2.95;;
8040;SDS011;4063;48.140;10.250;2023-04-03T12:47:55;3.83;;;3.00;;
8040;SDS011;4063;48.140;10.250;2023-04-03T12:50:27;2.87;;;2.47;;
8040;SDS011;4063;48.140;10.250;2023-04-03T12:53:04;3.63;;;2.63;;
8040;SDS011;4063;48.140;10.250;2023-04-03T12:55:31;3.70;;;2.63;;
8040;SDS011;4063;48.140;10.250;2023-04-03T12:57:57;5.77;;;2.97;;
8040;SDS011;4063;48.140;10.250;2023-04-03T13:00:28;2.67;;;2.30;;
8040;SDS011;4063;48.140;10.250;2023-04-03T13:02:54;3.10;;;2.80;;
8040;SDS011;4063;48.140;10.250;2023-04-03T13:05:21;3.10;;;2.80;;
8040;SDS011;4063;48.140;10.250;2023-04-03T13:07:48;5.57;;;2.87;;
8040;SDS011;4063;48.140;10.250;2023-04-03T13:10:15;4.77;;;2.53;;
8040;SDS011;4063;48.140;10.250;2023-04-03T13:12:54;4.57;;;3.20;;
8040;SDS011;4063;48.140;10.250;2023-04-03T13:15:24;3.45;;;2.80;;
8040;SDS011;4063;48.140;10.250;2023-04-03T13:17:52;3.97;;;2.63;;
8040;SDS011;4063;48.140;10.250;2023-04-03T13:20:28;3.47;;;2.78;;
8040;SDS011;4063;48.140;10.250;2023-04-03T13:23:05;3.20;;;2.47;;
8040;SDS011;4063;48.140;10.250;2023-04-03T13:25:34;3.20;;;2.70;;
8040;SDS011;4063;48.140;10.250;2023-04-03T13:28:01;4.13;;;3.33;;
8040;SDS011;4063;48.140;10.250;2023-04-03T13:30:29;3.87;;;2.80;;
8040;SDS011;4063;48.140;10.250;2023-04-03T13:32:56;4.10;;;3.20;;
8040;SDS011;4063;48.140;10.250;2023-04-03T13:37:55;4.90;;;2.60;;
8040;SDS011;4063;48.140;10.250;2023-04-03T13:40:22;3.80;;;3.50;;
8040;SDS011;4063;48.140;10.250;2023-04-03T13:42:58;4.07;;;3.27;;
8040;SDS011;4063;48.140;10.250;2023-04-03T13:45:28;5.03;;;3.93;;
8040;SDS011;4063;48.140;10.250;2023-04-03T13:48:08;3.80;;;3.07;;
8040;SDS011;4063;48.140;10.250;2023-04-03T13:50:41;4.63;;;3.90;;
8040;SDS011;4063;48.140;10.250;2023-04-03T13:53:15;5.67;;;4.60;;
8040;SDS011;4063;48.140;10.250;2023-04-03T13:58:51;8.70;;;7.60;;
8040;SDS011;4063;48.140;10.250;2023-04-03T14:01:18;3.60;;;3.10;;
8040;SDS011;4063;48.140;10.250;2023-04-03T14:06:15;7.13;;;4.17;;
8040;SDS011;4063;48.140;10.250;2023-04-03T14:08:42;3.47;;;2.60;;
8040;SDS011;4063;48.140;10.250;2023-04-03T14:11:11;3.50;;;2.87;;
8040;SDS011;4063;48.140;10.250;2023-04-03T14:13:38;3.25;;;2.60;;
8040;SDS011;4063;48.140;10.250;2023-04-03T14:16:04;3.83;;;2.63;;
8040;SDS011;4063;48.140;10.250;2023-04-03T14:18:30;2.92;;;2.50;;
8040;SDS011;4063;48.140;10.250;2023-04-03T14:20:56;3.95;;;2.78;;
8040;SDS011;4063;48.140;10.250;2023-04-03T14:23:22;6.38;;;3.20;;
8040;SDS011;4063;48.140;10.250;2023-04-03T14:25:48;3.35;;;2.88;;
8040;SDS011;4063;48.140;10.250;2023-04-03T14:28:16;5.05;;;3.10;;
8040;SDS011;4063;48.140;10.250;2023-04-03T14:30:42;3.15;;;2.50;;
8040;SDS011;4063;48.140;10.250;2023-04-03T14:33:10;3.13;;;2.80;;
8040;SDS011;4063;48.140;10.250;2023-04-03T14:35:38;5.90;;;2.95;;
8040;SDS011;4063;48.140;10.250;2023-04-03T14:38:05;3.75;;;2.60;;
8040;SDS011;4063;48.140;10.250;2023-04-03T14:40:38;3.40;;;2.50;;
8040;SDS011;4063;48.140;10.250;2023-04-03T14:43:05;4.38;;;2.90;;
8040;SDS011;4063;48.140;10.250;2023-04-03T14:45:31;2.90;;;2.33;;
8040;SDS011;4063;48.140;10.250;2023-04-03T14:47:57;3.30;;;2.30;;
8040;SDS011;4063;48.140;10.250;2023-04-03T14:50:25;5.40;;;3.93;;
8040;SDS011;4063;48.140;10.250;2023-04-03T14:52:53;5.88;;;3.53;;
8040;SDS011;4063;48.140;10.250;2023-04-03T14:55:20;4.55;;;4.10;;
8040;SDS011;4063;48.140;10.250;2023-04-03T14:57:46;3.72;;;2.58;;
8040;SDS011;4063;48.140;10.250;2023-04-03T15:00:13;6.15;;;2.63;;
8040;SDS011;4063;48.140;10.250;2023-04-03T15:02:39;3.13;;;2.70;;
8040;SDS011;4063;48.140;10.250;2023-04-03T15:05:07;6.28;;;3.25;;
8040;SDS011;4063;48.140;10.250;2023-04-03T15:07:34;5.30;;;2.63;;
8040;SDS011;4063;48.140;10.250;2023-04-03T15:12:39;6.93;;;4.25;;
8040;SDS011;4063;48.140;10.250;2023-04-03T15:15:06;8.77;;;5.03;;
8040;SDS011;4063;48.140;10.250;2023-04-03T15:17:32;10.07;;;6.60;;
8040;SDS011;4063;48.140;10.250;2023-04-03T15:19:59;4.70;;;3.13;;
8040;SDS011;4063;48.140;10.250;2023-04-03T15:22:26;5.10;;;2.90;;
8040;SDS011;4063;48.140;10.250;2023-04-03T15:24:53;3.10;;;2.70;;
8040;SDS011;4063;48.140;10.250;2023-04-03T15:27:19;3.60;;;3.10;;
8040;SDS011;4063;48.140;10.250;2023-04-03T15:29:45;3.70;;;3.20;;
8040;SDS011;4063;48.140;10.250;2023-04-03T15:32:11;4.37;;;2.93;;
8040;SDS011;4063;48.140;10.250;2023-04-03T15:34:38;3.00;;;2.40;;
8040;SDS011;4063;48.140;10.250;2023-04-03T15:37:04;2.80;;;2.27;;
8040;SDS011;4063;48.140;10.250;2023-04-03T15:39:30;3.23;;;2.73;;
8040;SDS011;4063;48.140;10.250;2023-04-03T15:41:56;4.27;;;3.10;;
8040;SDS011;4063;48.140;10.250;2023-04-03T15:44:28;4.20;;;2.50;;
8040;SDS011;4063;48.140;10.250;2023-04-03T15:46:54;3.07;;;2.40;;
8040;SDS011;4063;48.140;10.250;2023-04-03T15:49:20;3.90;;;2.37;;
8040;SDS011;4063;48.140;10.250;2023-04-03T15:51:47;6.50;;;3.60;;
8040;SDS011;4063;48.140;10.250;2023-04-03T15:54:13;4.07;;;3.37;;
8040;SDS011;4063;48.140;10.250;2023-04-03T15:56:39;5.27;;;3.00;;
8040;SDS011;4063;48.140;10.250;2023-04-03T15:59:05;5.50;;;4.23;;
8040;SDS011;4063;48.140;10.250;2023-04-03T16:01:31;3.60;;;2.83;;
8040;SDS011;4063;48.140;10.250;2023-04-03T16:03:57;2.97;;;2.35;;
8040;SDS011;4063;48.140;10.250;2023-04-03T16:06:23;3.75;;;2.55;;
8040;SDS011;4063;48.140;10.250;2023-04-03T16:08:50;2.92;;;2.38;;
8040;SDS011;4063;48.140;10.250;2023-04-03T16:11:16;5.78;;;2.65;;
8040;SDS011;4063;48.140;10.250;2023-04-03T16:13:42;4.10;;;3.00;;
8040;SDS011;4063;48.140;10.250;2023-04-03T16:16:09;3.38;;;2.60;;
8040;SDS011;4063;48.140;10.250;2023-04-03T16:18:35;4.25;;;2.08;;
8040;SDS011;4063;48.140;10.250;2023-04-03T16:21:01;2.92;;;2.28;;
8040;SDS011;4063;48.140;10.250;2023-04-03T16:23:27;3.65;;;2.25;;
8040;SDS011;4063;48.140;10.250;2023-04-03T16:25:53;2.75;;;1.83;;
8040;SDS011;4063;48.140;10.250;2023-04-03T16:28:19;2.22;;;1.83;;
8040;SDS011;4063;48.140;10.250;2023-04-03T16:30:45;3.28;;;2.97;;
8040;SDS011;4063;48.140;10.250;2023-04-03T16:33:12;2.58;;;2.10;;
8040;SDS011;4063;48.140;10.250;2023-04-03T16:35:39;2.40;;;1.80;;
8040;SDS011;4063;48.140;10.250;2023-04-03T16:38:07;2.20;;;2.00;;
8040;SDS011;4063;48.140;10.250;2023-04-03T16:40:33;3.90;;;2.40;;
8040;SDS011;4063;48.140;10.250;2023-04-03T16:42:59;3.50;;;2.00;;